Woodstock, VT (05091)

6:14 AM EDT on July 24, 2016 (GMT -0400)
Cabot Rd. Woodstock Vt | | Change Station

Elev 1000 ft 43.61 °N, 72.57 °W | Updated 24 seconds ago

Mist
Mist
54.3 °F
Feels Like 54.3 °F
N
0.0
Wind Variable Wind from SW
Gusts 0.0 mph

Today
High -- | Low -- °F
--% Chance of Precip.
Yesterday
High -- | Low -- °F
Precip. -- in
Pressure 29.96 in
Visibility 1.0 miles
Clouds
Dew Point 53 °F
Humidity 95%
Rainfall 0.00 in
Snow Depth Not available.
5:31 AM 8:21 PM
Waning Gibbous, 77% visible
SPECI KLEB 240958Z 18004KT 1SM BR VV001 14/13 A2996 RMK AO2 VIS 1/2V3 T01390128
Pressure 29.96 in
Visibility 1.0 miles
Clouds
Dew Point 53 °F
Humidity 95%
Rainfall 0.00 in
Snow Depth Not available.
5:31 AM 8:21 PM
Waning Gibbous, 77% visible
SPECI KLEB 240958Z 18004KT 1SM BR VV001 14/13 A2996 RMK AO2 VIS 1/2V3 T01390128

10-Day Weather Forecast

Almanac

Astronomy

Jul. 24, 2016 Rise Set
Actual Time
Civil Twilight
Nautical Twilight
Astronomical Twilight
Moon
Length of Visible Light
Length of Day
Tomorrow will be .
, % of the Moon is Illuminated

Today's Extremes

State Highs State Lows

Community

WunderPhotos

Upload Photos

1,927,040 photos uploaded!

WunderBlog® & News

Nearby

Air Quality

  Air Quality AQ Index Pollutant
Not available.

Snow Depth

Station Depth Elevation

Earthquake Activity

City Distance Mag. Time & Date
Minimum magnitude displayed is 2.5.

Coastal Water Temperatures

Place Temperature

Stations

Nearby Weather Stations

Station Location Temp. Windchill Dew Point Humidity Wind Precip. Elev Updated Type
                   

Watches & Warnings

There are currently no watches in effect.